Time;durP1;ratioP1;P1;durP2;ratioP2;P2;SDS_P1;SDS_P2;PMS_P1;PMS_P2;Temp;Humidity;BMP_temperature;BMP_pressure;BME280_temperature;BME280_humidity;BME280_pressure;Samples;Min_cycle;Max_cycle;Signal;HPM_P1;HPM_P2
2023/01/24 00:00:30;;;;;;;17.45;11.73;;;2.60;99.90;;;;;;5006256;28;20032;-83
2023/01/24 00:02:56;;;;;;;14.80;9.77;;;2.60;99.90;;;;;;5025207;28;20029;-83
2023/01/24 00:05:21;;;;;;;15.75;9.70;;;2.60;99.90;;;;;;4995447;28;20056;-83
2023/01/24 00:07:47;;;;;;;15.75;10.90;;;2.60;99.90;;;;;;5009882;28;20025;-83
2023/01/24 00:10:12;;;;;;;17.55;10.88;;;2.60;99.90;;;;;;5010826;28;20068;-83
2023/01/24 00:12:38;;;;;;;16.23;10.57;;;2.60;99.90;;;;;;5014507;28;20083;-83
2023/01/24 00:15:04;;;;;;;15.20;9.57;;;2.70;99.90;;;;;;5010868;28;20150;-83
2023/01/24 00:17:29;;;;;;;16.00;10.93;;;2.60;99.90;;;;;;4995903;28;20037;-83
2023/01/24 00:19:55;;;;;;;16.00;10.77;;;2.70;99.90;;;;;;4994595;28;20116;-83
2023/01/24 00:22:21;;;;;;;17.67;11.50;;;2.70;99.90;;;;;;5013369;28;20029;-83
2023/01/24 00:24:48;;;;;;;17.88;10.65;;;2.60;99.90;;;;;;5026557;28;20072;-83
2023/01/24 00:27:14;;;;;;;16.15;9.60;;;2.60;99.90;;;;;;5012303;28;21294;-83
2023/01/24 00:29:39;;;;;;;15.18;10.75;;;2.60;99.90;;;;;;4992782;28;20066;-82
2023/01/24 00:32:05;;;;;;;16.02;10.15;;;2.60;99.90;;;;;;5010089;28;20037;-83
2023/01/24 00:34:30;;;;;;;16.50;9.65;;;2.60;99.90;;;;;;5012319;28;20392;-83
2023/01/24 00:36:56;;;;;;;18.75;10.85;;;2.60;99.90;;;;;;4996620;28;20039;-83
2023/01/24 00:39:21;;;;;;;15.85;10.38;;;2.60;99.90;;;;;;4996463;28;20025;-83
2023/01/24 00:41:47;;;;;;;15.40;10.20;;;2.60;99.90;;;;;;5031230;28;20120;-83
2023/01/24 00:44:13;;;;;;;16.10;9.55;;;2.60;99.90;;;;;;5013213;28;20041;-83
2023/01/24 00:46:38;;;;;;;16.42;11.00;;;2.60;99.90;;;;;;4998924;28;20038;-82
2023/01/24 00:49:04;;;;;;;14.52;9.38;;;2.60;99.90;;;;;;5027409;28;20040;-83
2023/01/24 00:51:29;;;;;;;14.85;9.10;;;2.60;99.90;;;;;;4991251;28;20033;-83
2023/01/24 00:53:55;;;;;;;14.30;9.45;;;2.60;99.90;;;;;;5006910;28;20105;-83
2023/01/24 00:56:21;;;;;;;13.07;8.05;;;2.60;99.90;;;;;;4996534;28;20029;-83
2023/01/24 00:58:48;;;;;;;13.88;9.52;;;2.60;99.90;;;;;;5010794;28;20052;-83
2023/01/24 01:01:14;;;;;;;14.95;10.48;;;2.60;99.90;;;;;;4993166;28;20508;-83
2023/01/24 01:03:39;;;;;;;15.18;8.80;;;2.60;99.90;;;;;;4995063;28;20055;-83
2023/01/24 01:06:11;;;;;;;16.77;10.02;;;2.60;99.90;;;;;;5010160;28;20162;-82
2023/01/24 01:08:37;;;;;;;16.75;9.40;;;2.60;99.90;;;;;;4994361;28;20352;-83
2023/01/24 01:11:03;;;;;;;12.85;9.30;;;2.60;99.90;;;;;;4995137;28;20468;-83
2023/01/24 01:13:28;;;;;;;12.80;7.93;;;2.60;99.90;;;;;;5030326;28;20086;-83
2023/01/24 01:16:04;;;;;;;13.90;8.27;;;2.60;99.90;;;;;;4995515;28;20044;-83
2023/01/24 01:18:30;;;;;;;13.48;8.57;;;2.60;99.90;;;;;;4996698;28;20500;-83
2023/01/24 01:20:56;;;;;;;14.70;8.48;;;2.60;99.90;;;;;;4991372;28;20128;-83
2023/01/24 01:23:21;;;;;;;14.38;9.05;;;2.60;99.90;;;;;;4999548;28;20504;-83
2023/01/24 01:25:47;;;;;;;13.25;9.65;;;2.60;99.90;;;;;;4994127;28;20397;-83
2023/01/24 01:28:12;;;;;;;18.42;9.52;;;2.50;99.90;;;;;;5021533;28;20037;-83
2023/01/24 01:30:38;;;;;;;13.18;9.18;;;2.50;99.90;;;;;;4995498;28;20033;-83
2023/01/24 01:33:03;;;;;;;13.98;8.27;;;2.60;99.90;;;;;;5012203;28;20037;-83
2023/01/24 01:35:29;;;;;;;13.00;8.48;;;2.50;99.90;;;;;;4992979;28;20120;-82
2023/01/24 01:37:54;;;;;;;11.65;9.55;;;2.50;99.90;;;;;;4995831;28;20040;-82
2023/01/24 01:40:20;;;;;;;13.38;8.95;;;2.40;99.90;;;;;;4994978;28;20029;-83
2023/01/24 01:42:53;;;;;;;12.85;8.20;;;2.50;99.90;;;;;;5012040;28;20120;-82
2023/01/24 01:45:39;;;;;;;12.70;8.30;;;2.50;99.90;;;;;;5012534;28;20026;-83
2023/01/24 01:48:18;;;;;;;13.95;9.38;;;2.50;99.90;;;;;;5025294;28;20033;-83
2023/01/24 01:50:47;;;;;;;10.50;6.57;;;2.50;99.90;;;;;;4993235;28;20079;-83
2023/01/24 01:53:12;;;;;;;12.50;7.95;;;2.50;99.90;;;;;;5011224;28;20068;-83
2023/01/24 01:55:39;;;;;;;12.70;8.43;;;2.60;99.90;;;;;;4993743;28;20067;-82
2023/01/24 01:58:05;;;;;;;14.07;8.68;;;2.50;99.90;;;;;;5013254;28;20049;-82
2023/01/24 02:00:30;;;;;;;10.23;6.95;;;2.50;99.90;;;;;;4994115;28;20037;-82
2023/01/24 02:03:37;;;;;;;12.60;7.35;;;2.50;99.90;;;;;;4993212;28;20091;-83
2023/01/24 02:05:45;;;;;;;14.02;7.75;;;2.50;99.90;;;;;;5014334;28;20025;-83
2023/01/24 02:08:12;;;;;;;12.60;8.30;;;2.50;99.90;;;;;;4994422;28;20044;-83
2023/01/24 02:13:23;;;;;;;10.18;6.75;;;2.50;99.90;;;;;;5016896;28;20083;-83
2023/01/24 02:16:02;;;;;;;11.18;8.20;;;2.50;99.90;;;;;;5006263;28;20042;-83
2023/01/24 02:18:27;;;;;;;13.15;7.30;;;2.30;99.90;;;;;;5022270;28;20417;-83
2023/01/24 02:20:53;;;;;;;9.10;6.68;;;2.50;99.90;;;;;;4990070;28;20056;-83
2023/01/24 02:23:26;;;;;;;13.18;7.05;;;2.50;99.90;;;;;;4992742;28;20033;-83
2023/01/24 02:26:12;;;;;;;11.25;7.45;;;2.50;99.90;;;;;;5007155;28;20040;-83
2023/01/24 02:28:39;;;;;;;11.10;6.60;;;2.50;99.90;;;;;;5008040;28;20510;-83
2023/01/24 02:31:04;;;;;;;11.02;6.40;;;2.50;99.90;;;;;;5012439;28;20041;-83
2023/01/24 02:33:30;;;;;;;12.10;7.25;;;2.50;99.90;;;;;;5007002;28;20043;-82
2023/01/24 02:36:13;;;;;;;8.23;5.68;;;2.50;99.90;;;;;;5011386;28;20049;-83
2023/01/24 02:38:40;;;;;;;8.82;6.72;;;2.50;99.90;;;;;;5042157;28;20589;-83
2023/01/24 02:41:06;;;;;;;8.93;5.75;;;2.50;99.90;;;;;;4990800;28;20036;-83
2023/01/24 02:43:34;;;;;;;9.93;7.13;;;2.50;99.90;;;;;;4993878;28;20401;-82
2023/01/24 02:46:00;;;;;;;11.30;6.57;;;2.40;99.90;;;;;;5008525;28;20112;-83
2023/01/24 02:48:25;;;;;;;10.65;6.32;;;2.40;99.90;;;;;;4993393;28;20116;-83
2023/01/24 02:53:36;;;;;;;10.20;6.85;;;2.50;99.90;;;;;;5012721;28;20629;-83
2023/01/24 02:58:48;;;;;;;;;;;2.40;99.90;;;;;;5013536;28;20090;-82
2023/01/24 03:01:14;;;;;;;10.30;6.70;;;2.40;99.90;;;;;;5048724;28;19925;-83
2023/01/24 03:03:42;;;;;;;9.85;6.63;;;2.40;99.90;;;;;;4991794;28;20150;-82
2023/01/24 03:06:07;;;;;;;10.25;7.32;;;2.40;99.90;;;;;;4995696;28;20029;-83
2023/01/24 03:08:33;;;;;;;10.75;6.72;;;2.30;99.90;;;;;;4999711;28;20033;-82
2023/01/24 03:10:59;;;;;;;9.13;6.63;;;2.30;99.90;;;;;;5011134;28;20504;-82
2023/01/24 03:35:17;;;;;;;9.00;6.25;;;2.20;99.90;;;;;;5008066;28;20087;-81
2023/01/24 03:40:27;;;;;;;10.35;7.20;;;2.20;99.90;;;;;;5014047;28;20095;-81
2023/01/24 03:42:53;;;;;;;10.75;7.00;;;2.20;99.90;;;;;;4993284;28;20029;-81
2023/01/24 03:45:20;;;;;;;10.75;6.80;;;2.20;99.90;;;;;;4998343;28;20036;-80
2023/01/24 03:47:56;;;;;;;9.35;6.55;;;2.20;99.90;;;;;;4994316;28;20036;-81
2023/01/24 03:53:17;;;;;;;9.60;6.60;;;2.10;99.90;;;;;;5015877;28;20063;-80
2023/01/24 03:55:42;;;;;;;10.73;6.97;;;2.20;99.90;;;;;;5011308;28;20551;-81
2023/01/24 03:58:08;;;;;;;10.05;7.10;;;2.20;99.90;;;;;;5013326;28;20108;-81
2023/01/24 04:00:34;;;;;;;11.70;7.05;;;2.20;99.90;;;;;;5012511;28;20563;-81
2023/01/24 04:03:00;;;;;;;11.32;7.13;;;2.30;99.90;;;;;;4998918;28;20505;-81
2023/01/24 04:05:26;;;;;;;10.05;6.45;;;2.20;99.90;;;;;;4997315;28;20033;-81
2023/01/24 04:07:53;;;;;;;10.82;7.13;;;2.20;99.90;;;;;;4994866;28;20033;-80
2023/01/24 04:10:18;;;;;;;9.48;6.53;;;2.20;99.90;;;;;;5014620;28;20447;-80
2023/01/24 04:12:44;;;;;;;10.65;6.65;;;2.20;99.90;;;;;;5012137;28;20119;-81
2023/01/24 04:15:18;;;;;;;9.00;6.20;;;2.20;99.90;;;;;;5011460;28;20074;-81
2023/01/24 04:17:43;;;;;;;10.48;6.28;;;2.20;99.90;;;;;;4992090;28;20033;-81
2023/01/24 04:20:09;;;;;;;11.27;6.82;;;2.20;99.90;;;;;;5012808;28;20033;-81
2023/01/24 04:22:35;;;;;;;10.05;6.97;;;2.10;99.90;;;;;;5009307;28;20036;-81
2023/01/24 04:25:01;;;;;;;10.05;5.07;;;2.20;99.90;;;;;;4996813;28;20037;-81
2023/01/24 04:27:26;;;;;;;10.63;6.30;;;2.20;99.90;;;;;;5027856;28;20040;-81
2023/01/24 04:29:52;;;;;;;10.73;6.10;;;2.20;99.90;;;;;;5010476;28;20033;-81
2023/01/24 04:32:17;;;;;;;9.18;6.40;;;2.20;99.90;;;;;;4996926;28;20174;-81
2023/01/24 04:34:43;;;;;;;11.52;6.57;;;2.20;99.90;;;;;;5007651;28;20056;-81
2023/01/24 04:37:08;;;;;;;9.90;6.50;;;2.30;99.90;;;;;;4996911;28;20199;-81
2023/01/24 04:39:34;;;;;;;9.73;7.10;;;2.20;99.90;;;;;;4997090;28;20547;-81
2023/01/24 04:41:59;;;;;;;10.23;6.93;;;2.30;99.90;;;;;;5012676;28;20130;-81
2023/01/24 04:44:31;;;;;;;12.32;6.93;;;2.20;99.90;;;;;;5011355;28;20052;-81
2023/01/24 04:46:57;;;;;;;12.45;9.15;;;2.20;99.90;;;;;;4995997;28;20512;-81
2023/01/24 04:49:23;;;;;;;11.02;6.50;;;2.10;99.90;;;;;;4991151;28;20033;-81
2023/01/24 04:51:49;;;;;;;11.30;7.50;;;2.10;99.90;;;;;;4995872;28;20045;-81
2023/01/24 04:54:15;;;;;;;12.45;7.57;;;2.10;99.90;;;;;;4995733;28;20175;-81
2023/01/24 04:56:41;;;;;;;11.48;7.88;;;2.10;99.90;;;;;;5010350;28;20116;-81
2023/01/24 04:59:06;;;;;;;11.30;7.95;;;2.10;99.90;;;;;;5012559;28;20039;-81
2023/01/24 05:01:32;;;;;;;10.70;7.80;;;2.10;99.90;;;;;;5011529;28;20103;-81
2023/01/24 05:04:00;;;;;;;12.18;7.57;;;2.10;99.90;;;;;;5025353;28;20154;-81
2023/01/24 05:06:26;;;;;;;12.43;8.57;;;2.10;99.90;;;;;;4989693;28;20018;-81
2023/01/24 05:08:55;;;;;;;12.18;7.80;;;2.10;99.90;;;;;;4995967;28;20033;-81
2023/01/24 05:11:20;;;;;;;12.65;8.05;;;2.10;99.90;;;;;;4995874;28;20120;-81
2023/01/24 05:13:46;;;;;;;13.02;8.13;;;2.20;99.90;;;;;;4993691;28;20154;-81
2023/01/24 05:16:12;;;;;;;12.02;7.95;;;2.10;99.90;;;;;;5008446;28;20036;-81
2023/01/24 05:18:38;;;;;;;10.95;7.57;;;2.10;99.90;;;;;;5018288;28;20056;-81
2023/01/24 05:21:07;;;;;;;12.82;8.75;;;2.10;99.90;;;;;;5009116;28;20417;-82
2023/01/24 05:23:32;;;;;;;12.98;8.70;;;2.10;99.90;;;;;;5011058;28;20065;-81
2023/01/24 05:26:00;;;;;;;13.25;8.90;;;2.10;99.90;;;;;;5005001;28;20060;-81
2023/01/24 05:28:26;;;;;;;12.80;8.98;;;2.10;99.90;;;;;;5010911;28;20488;-81
2023/01/24 05:30:51;;;;;;;12.40;7.65;;;2.00;99.90;;;;;;4996432;28;20095;-81
2023/01/24 05:33:17;;;;;;;13.50;8.95;;;2.10;99.90;;;;;;5025253;28;20488;-81
2023/01/24 05:35:44;;;;;;;13.38;9.05;;;2.10;99.90;;;;;;5025703;28;20029;-81
2023/01/24 05:38:10;;;;;;;11.65;8.85;;;2.10;99.90;;;;;;5008023;28;20477;-80
2023/01/24 05:40:36;;;;;;;15.13;9.70;;;2.00;99.90;;;;;;4994009;28;20039;-81
2023/01/24 05:43:01;;;;;;;14.15;9.23;;;2.00;99.90;;;;;;5022220;28;20037;-80
2023/01/24 05:45:27;;;;;;;15.10;9.00;;;2.00;99.90;;;;;;5008782;28;20384;-81
2023/01/24 05:47:54;;;;;;;15.25;9.05;;;2.00;99.90;;;;;;4991585;28;20038;-81
2023/01/24 05:50:20;;;;;;;14.10;9.48;;;2.00;99.90;;;;;;5010718;28;20037;-81
2023/01/24 05:52:45;;;;;;;15.52;9.25;;;2.10;99.90;;;;;;5011097;28;20039;-81
2023/01/24 05:55:11;;;;;;;12.80;9.20;;;2.00;99.90;;;;;;5011974;28;20124;-81
2023/01/24 05:57:37;;;;;;;13.63;8.57;;;2.10;99.90;;;;;;4991612;28;20044;-81
2023/01/24 06:00:03;;;;;;;14.98;9.55;;;2.00;99.90;;;;;;5025949;28;20557;-81
2023/01/24 06:02:29;;;;;;;14.80;9.18;;;2.00;99.90;;;;;;5003628;28;20040;-81
2023/01/24 06:04:54;;;;;;;15.02;9.45;;;2.10;99.90;;;;;;5007629;28;20041;-81
2023/01/24 06:07:20;;;;;;;15.38;8.88;;;2.10;99.90;;;;;;4993321;28;20055;-82
2023/01/24 06:09:45;;;;;;;12.45;8.90;;;2.00;99.90;;;;;;5008879;28;20045;-81
2023/01/24 06:12:11;;;;;;;14.52;9.60;;;2.10;99.90;;;;;;4994359;28;20033;-82
2023/01/24 06:14:39;;;;;;;14.80;9.15;;;2.10;99.90;;;;;;5024007;28;20056;-82
2023/01/24 06:17:04;;;;;;;16.20;9.65;;;2.10;99.90;;;;;;5006809;28;20048;-82
2023/01/24 06:19:30;;;;;;;17.52;10.32;;;2.10;99.90;;;;;;5003098;28;20033;-81
2023/01/24 06:22:04;;;;;;;14.35;9.15;;;2.10;99.90;;;;;;5009054;28;20033;-82
2023/01/24 06:24:30;;;;;;;14.50;9.07;;;2.10;99.90;;;;;;4988940;28;20075;-81
2023/01/24 06:26:55;;;;;;;14.95;9.50;;;2.10;99.90;;;;;;4994838;28;20046;-80
2023/01/24 06:29:21;;;;;;;17.45;10.25;;;2.10;99.90;;;;;;4996436;28;20025;-82
2023/01/24 06:31:53;;;;;;;15.50;10.07;;;2.00;99.90;;;;;;4992838;28;20032;-81
2023/01/24 06:34:27;;;;;;;15.82;10.32;;;2.00;99.90;;;;;;5043690;28;20119;-81
2023/01/24 06:37:17;;;;;;;17.75;12.20;;;2.00;99.90;;;;;;5041564;28;20476;-81
2023/01/24 06:39:49;;;;;;;15.82;9.73;;;2.00;99.90;;;;;;5020617;28;20032;-82
2023/01/24 06:42:17;;;;;;;15.15;10.90;;;2.00;99.90;;;;;;5012033;28;20033;-81
2023/01/24 06:44:42;;;;;;;17.30;11.90;;;2.00;99.90;;;;;;5006624;28;20030;-81
2023/01/24 06:47:10;;;;;;;13.93;9.38;;;2.00;99.90;;;;;;5031296;28;20546;-81
2023/01/24 06:49:37;;;;;;;17.92;11.20;;;2.00;99.90;;;;;;4996294;28;20090;-81
2023/01/24 06:52:06;;;;;;;15.90;10.07;;;2.00;99.90;;;;;;4996253;28;20540;-81
2023/01/24 06:54:33;;;;;;;16.30;10.85;;;2.00;99.90;;;;;;5011415;28;20439;-81
2023/01/24 06:56:59;;;;;;;15.20;11.20;;;2.00;99.90;;;;;;4993004;28;20029;-81
2023/01/24 06:59:24;;;;;;;14.25;10.18;;;2.00;99.90;;;;;;5023906;28;20074;-82
2023/01/24 07:01:50;;;;;;;15.40;10.88;;;2.00;99.90;;;;;;4999950;28;20060;-82
2023/01/24 07:04:16;;;;;;;10.25;7.15;;;2.00;99.90;;;;;;5006851;28;20040;-82
2023/01/24 07:06:42;;;;;;;13.93;10.23;;;2.10;99.90;;;;;;4993767;28;20032;-81
2023/01/24 07:09:08;;;;;;;20.80;10.13;;;2.00;99.90;;;;;;5010917;28;20026;-82
2023/01/24 07:11:33;;;;;;;15.18;9.60;;;2.00;99.90;;;;;;5009822;28;20058;-81
2023/01/24 07:13:59;;;;;;;13.95;9.85;;;2.00;99.90;;;;;;5008413;28;20412;-81
2023/01/24 07:16:24;;;;;;;14.32;9.27;;;1.90;99.90;;;;;;5009008;28;20669;-82
2023/01/24 07:18:50;;;;;;;13.98;8.68;;;2.00;99.90;;;;;;4988826;28;20100;-82
2023/01/24 07:21:18;;;;;;;14.23;9.13;;;2.10;99.90;;;;;;4994345;28;20182;-82
2023/01/24 07:23:45;;;;;;;14.55;10.07;;;2.10;99.90;;;;;;5027998;28;20029;-82
2023/01/24 07:26:11;;;;;;;13.38;9.18;;;2.10;99.90;;;;;;5009646;28;20025;-82
2023/01/24 07:28:40;;;;;;;12.90;9.55;;;2.10;99.90;;;;;;5006510;28;20029;-82
2023/01/24 07:31:06;;;;;;;14.00;9.38;;;2.10;99.90;;;;;;5026392;28;20119;-82
2023/01/24 07:33:31;;;;;;;13.48;8.55;;;2.10;99.90;;;;;;4996338;28;20025;-82
2023/01/24 07:35:57;;;;;;;14.85;10.00;;;2.10;99.90;;;;;;4994181;28;20502;-82
2023/01/24 07:38:23;;;;;;;12.80;8.45;;;2.10;99.90;;;;;;5024950;28;20041;-82
2023/01/24 07:40:49;;;;;;;14.40;8.95;;;2.10;99.90;;;;;;5010225;28;20507;-82
2023/01/24 07:43:15;;;;;;;14.48;8.75;;;2.10;99.90;;;;;;4992557;28;20641;-82
2023/01/24 07:45:44;;;;;;;13.25;9.48;;;2.10;99.90;;;;;;5005588;28;20148;-82
2023/01/24 07:48:10;;;;;;;13.82;9.93;;;2.10;99.90;;;;;;4988764;28;20404;-82
2023/01/24 07:50:36;;;;;;;11.88;8.20;;;2.10;99.90;;;;;;5026282;28;20029;-82
2023/01/24 07:53:01;;;;;;;11.93;8.30;;;2.10;99.90;;;;;;5015659;28;20033;-82
2023/01/24 07:55:27;;;;;;;10.95;8.52;;;2.10;99.90;;;;;;4991759;28;20029;-82
2023/01/24 07:57:57;;;;;;;13.77;9.68;;;2.10;99.90;;;;;;5007902;28;20090;-82
2023/01/24 08:00:23;;;;;;;14.15;9.00;;;2.20;99.90;;;;;;5015014;28;20037;-82
2023/01/24 08:02:49;;;;;;;12.73;8.60;;;2.20;99.90;;;;;;4992112;28;20408;-82
2023/01/24 08:05:15;;;;;;;11.80;8.07;;;2.20;99.90;;;;;;5007144;28;20045;-82
2023/01/24 08:07:40;;;;;;;11.85;7.82;;;2.20;99.90;;;;;;5025006;28;20033;-83
2023/01/24 08:10:07;;;;;;;11.63;8.05;;;2.20;99.90;;;;;;4989103;28;20040;-82
2023/01/24 08:12:32;;;;;;;14.20;7.93;;;2.30;99.90;;;;;;4991924;28;20388;-82
2023/01/24 08:14:58;;;;;;;12.65;8.15;;;2.30;99.90;;;;;;4992863;28;20037;-81
2023/01/24 08:17:23;;;;;;;9.93;7.38;;;2.30;99.90;;;;;;5005614;28;20556;-81
2023/01/24 08:19:49;;;;;;;16.67;9.82;;;2.30;99.90;;;;;;4990795;28;20045;-81
2023/01/24 08:22:14;;;;;;;10.30;7.07;;;2.40;99.90;;;;;;5006189;28;20564;-81
2023/01/24 08:24:40;;;;;;;11.82;7.57;;;2.40;99.90;;;;;;5006004;28;20048;-82
2023/01/24 08:27:05;;;;;;;10.52;7.03;;;2.30;99.90;;;;;;5008649;28;20400;-81
2023/01/24 08:29:31;;;;;;;9.55;7.57;;;2.40;99.90;;;;;;4999654;28;20480;-81
2023/01/24 08:31:57;;;;;;;9.57;6.53;;;2.40;99.90;;;;;;5012873;28;20389;-81
2023/01/24 08:34:23;;;;;;;11.10;6.53;;;2.40;99.90;;;;;;4995776;28;20130;-81
2023/01/24 08:36:48;;;;;;;9.63;6.32;;;2.50;99.90;;;;;;4998475;28;20029;-81
2023/01/24 08:39:14;;;;;;;8.52;6.03;;;2.50;99.90;;;;;;4998004;28;20095;-81
2023/01/24 08:41:43;;;;;;;8.52;5.68;;;2.50;99.90;;;;;;5009791;28;20051;-82
2023/01/24 08:44:08;;;;;;;10.70;6.25;;;2.60;99.90;;;;;;5011700;28;20045;-81
2023/01/24 08:46:34;;;;;;;8.77;5.53;;;2.60;99.90;;;;;;4996277;28;20095;-81
2023/01/24 08:48:59;;;;;;;9.48;6.53;;;2.60;99.90;;;;;;4996449;28;20060;-81
2023/01/24 08:51:25;;;;;;;9.00;6.07;;;2.60;99.90;;;;;;4996830;28;20040;-81
2023/01/24 08:53:51;;;;;;;9.57;5.97;;;2.60;99.90;;;;;;4998191;28;20041;-81
2023/01/24 08:56:16;;;;;;;9.40;6.63;;;2.70;99.90;;;;;;4994921;28;20057;-81
2023/01/24 08:58:42;;;;;;;9.23;6.50;;;2.70;99.90;;;;;;5013409;28;20693;-80
2023/01/24 09:01:08;;;;;;;10.00;6.63;;;2.80;99.90;;;;;;5012014;28;20052;-81
2023/01/24 09:03:34;;;;;;;10.77;6.28;;;2.80;99.90;;;;;;5021693;28;20052;-81
2023/01/24 09:05:59;;;;;;;9.77;6.00;;;2.90;99.90;;;;;;4992862;28;20065;-81
2023/01/24 09:08:25;;;;;;;13.48;6.40;;;2.90;99.90;;;;;;4994529;28;20071;-81
2023/01/24 09:10:51;;;;;;;8.73;6.45;;;2.90;99.90;;;;;;5012814;28;20033;-81
2023/01/24 09:13:16;;;;;;;9.70;7.00;;;3.00;99.90;;;;;;5013005;28;20098;-81
2023/01/24 09:15:42;;;;;;;11.93;7.00;;;3.00;99.90;;;;;;4988833;28;20048;-81
2023/01/24 09:18:07;;;;;;;9.25;6.30;;;3.00;99.90;;;;;;5011561;28;20099;-81
2023/01/24 09:20:34;;;;;;;7.78;6.43;;;3.00;99.90;;;;;;5011775;28;20043;-80
2023/01/24 09:22:59;;;;;;;8.98;6.70;;;3.10;99.90;;;;;;4992378;28;20037;-82
2023/01/24 09:25:25;;;;;;;9.82;6.63;;;3.10;99.90;;;;;;5010544;28;20418;-81
2023/01/24 09:27:54;;;;;;;10.48;6.82;;;3.10;99.90;;;;;;5014837;28;20051;-82
2023/01/24 09:30:20;;;;;;;9.77;6.15;;;3.20;99.90;;;;;;5012820;28;20045;-82
2023/01/24 09:32:46;;;;;;;10.75;7.03;;;3.20;99.90;;;;;;5009621;28;20420;-82
2023/01/24 09:35:11;;;;;;;9.45;6.82;;;3.30;99.90;;;;;;4991763;28;20044;-82
2023/01/24 09:37:37;;;;;;;8.50;6.53;;;3.30;99.90;;;;;;5009770;28;20808;-81
2023/01/24 09:40:03;;;;;;;9.13;7.45;;;3.30;99.90;;;;;;5022116;28;20078;-83
2023/01/24 09:42:40;;;;;;;11.00;6.72;;;3.30;99.90;;;;;;5011309;28;20377;-81
2023/01/24 09:45:36;;;;;;;9.00;6.32;;;3.30;99.90;;;;;;5007569;28;20115;-82
2023/01/24 09:48:06;;;;;;;10.00;7.18;;;3.40;99.90;;;;;;5004328;28;20129;-81
2023/01/24 09:50:43;;;;;;;9.25;6.55;;;3.50;99.90;;;;;;4993540;28;20553;-81
2023/01/24 09:53:15;;;;;;;9.80;7.18;;;3.60;99.90;;;;;;5003569;28;20036;-81
2023/01/24 09:55:41;;;;;;;9.18;6.82;;;3.60;99.90;;;;;;5015378;28;20039;-81
2023/01/24 09:58:18;;;;;;;11.02;6.15;;;3.60;99.90;;;;;;4994625;28;20512;-82
2023/01/24 10:00:44;;;;;;;7.45;5.35;;;3.70;99.90;;;;;;4996885;28;20025;-81
2023/01/24 10:03:18;;;;;;;10.82;6.32;;;3.80;99.90;;;;;;4996843;28;20036;-81
2023/01/24 10:05:47;;;;;;;9.32;6.38;;;3.80;99.90;;;;;;5008397;28;20451;-82
2023/01/24 10:08:31;;;;;;;9.55;7.07;;;3.80;99.90;;;;;;4993868;28;20029;-81
2023/01/24 10:11:21;;;;;;;8.88;6.90;;;3.90;99.90;;;;;;5040922;28;20479;-83
2023/01/24 10:14:24;;;;;;;7.35;6.32;;;3.90;99.90;;;;;;5022367;28;20120;-81
2023/01/24 10:17:11;;;;;;;10.32;7.30;;;3.90;99.90;;;;;;5001269;28;20033;-81
2023/01/24 10:20:01;;;;;;;8.77;6.20;;;4.00;99.90;;;;;;5020763;28;20068;-81
2023/01/24 10:22:41;;;;;;;9.50;7.30;;;4.10;99.90;;;;;;5024447;28;20526;-81
2023/01/24 10:25:12;;;;;;;10.63;7.25;;;4.20;99.90;;;;;;5024991;28;20499;-81
2023/01/24 10:27:43;;;;;;;9.93;6.32;;;4.20;99.90;;;;;;5041008;28;20047;-81
2023/01/24 10:30:22;;;;;;;10.13;6.90;;;4.30;99.90;;;;;;4994258;28;20095;-81
2023/01/24 10:32:52;;;;;;;11.85;7.22;;;4.30;99.90;;;;;;4991815;28;20401;-81
2023/01/24 10:35:21;;;;;;;9.40;7.00;;;4.40;99.90;;;;;;4987973;28;20530;-81
2023/01/24 10:37:55;;;;;;;9.93;7.63;;;4.40;99.90;;;;;;4995832;28;20147;-81
2023/01/24 10:40:21;;;;;;;10.88;7.30;;;4.50;99.90;;;;;;5023888;28;20037;-80
2023/01/24 10:42:47;;;;;;;10.25;7.18;;;4.50;99.90;;;;;;5008305;28;20029;-81
2023/01/24 10:45:35;;;;;;;11.45;8.05;;;4.60;99.90;;;;;;5004693;28;20377;-81
2023/01/24 10:48:25;;;;;;;12.40;7.22;;;4.50;99.90;;;;;;5006866;28;20044;-82
2023/01/24 10:50:51;;;;;;;15.02;7.70;;;4.60;99.90;;;;;;5026959;28;20115;-82
2023/01/24 10:53:26;;;;;;;14.50;7.70;;;4.60;99.90;;;;;;5010727;28;20036;-81
2023/01/24 10:55:59;;;;;;;13.60;8.40;;;4.60;99.90;;;;;;5010998;28;20378;-82
2023/01/24 10:58:26;;;;;;;13.05;8.27;;;4.70;99.90;;;;;;5015600;28;20112;-82
2023/01/24 11:01:14;;;;;;;11.18;8.18;;;4.70;99.90;;;;;;5012281;28;20029;-81
2023/01/24 11:03:40;;;;;;;11.48;7.85;;;4.80;99.90;;;;;;5009889;28;20032;-82
2023/01/24 11:06:38;;;;;;;15.40;8.70;;;4.90;99.90;;;;;;5007560;28;20033;-81
2023/01/24 11:09:10;;;;;;;10.80;8.13;;;4.90;99.90;;;;;;5018352;28;20032;-82
2023/01/24 11:11:39;;;;;;;10.95;8.07;;;4.90;99.90;;;;;;5026799;28;20139;-82
2023/01/24 11:14:05;;;;;;;9.70;7.60;;;5.00;99.90;;;;;;5008878;28;20497;-82
2023/01/24 11:16:33;;;;;;;12.88;8.38;;;5.00;99.90;;;;;;5011824;28;20032;-81
2023/01/24 11:19:01;;;;;;;10.85;9.10;;;5.00;99.90;;;;;;4996262;28;20040;-82
2023/01/24 11:21:29;;;;;;;13.52;8.90;;;5.10;99.90;;;;;;4994585;28;20042;-81
2023/01/24 11:24:06;;;;;;;10.32;8.35;;;5.00;99.90;;;;;;5005777;28;20029;-82
2023/01/24 11:26:36;;;;;;;10.48;7.80;;;5.10;99.90;;;;;;5042795;28;20044;-81
2023/01/24 11:29:05;;;;;;;12.43;8.25;;;5.10;99.90;;;;;;4994864;28;20029;-82
2023/01/24 11:31:38;;;;;;;10.00;8.55;;;5.10;99.90;;;;;;4993092;28;20481;-81
2023/01/24 11:34:04;;;;;;;10.57;8.07;;;5.10;99.90;;;;;;5011413;28;20095;-83
2023/01/24 11:37:04;;;;;;;12.93;8.77;;;5.20;99.90;;;;;;5043358;28;20112;-82
2023/01/24 11:39:44;;;;;;;10.88;7.47;;;5.20;99.90;;;;;;5027264;28;20396;-82
2023/01/24 11:42:34;;;;;;;10.80;8.38;;;5.20;99.90;;;;;;4993442;28;20539;-82
2023/01/24 11:45:09;;;;;;;12.63;9.15;;;5.20;99.90;;;;;;5030038;28;20029;-82
2023/01/24 11:47:38;;;;;;;11.60;8.77;;;5.30;99.90;;;;;;5025876;28;20029;-82
2023/01/24 11:50:44;;;;;;;10.57;8.13;;;5.30;99.90;;;;;;4992857;28;20025;-82
2023/01/24 11:53:31;;;;;;;13.02;9.85;;;5.30;99.90;;;;;;5023729;28;20037;-83
2023/01/24 11:56:21;;;;;;;11.68;9.25;;;5.40;99.90;;;;;;5027847;28;20519;-82
2023/01/24 11:59:08;;;;;;;13.63;9.45;;;5.50;99.90;;;;;;5023575;28;20488;-82
2023/01/24 12:01:43;;;;;;;;;;;5.50;99.90;;;;;;5036511;28;20075;-82
2023/01/24 12:04:30;;;;;;;12.80;9.30;;;5.50;99.90;;;;;;5029109;28;19948;-82
2023/01/24 12:07:14;;;;;;;10.10;8.52;;;5.50;99.90;;;;;;5019671;28;20480;-82
2023/01/24 12:09:58;;;;;;;11.45;9.13;;;5.50;99.90;;;;;;5010836;28;20037;-82
2023/01/24 12:12:32;;;;;;;13.32;9.40;;;5.50;99.90;;;;;;4996854;28;20154;-82
2023/01/24 12:15:20;;;;;;;11.45;9.30;;;5.50;99.90;;;;;;5012066;28;20029;-83
2023/01/24 12:17:52;;;;;;;12.80;9.73;;;5.50;99.90;;;;;;5017528;28;20116;-82
2023/01/24 12:20:55;;;;;;;14.00;9.05;;;5.50;99.90;;;;;;5024658;28;20032;-81
2023/01/24 12:23:28;;;;;;;10.90;8.10;;;5.50;99.90;;;;;;5026902;28;20511;-81
2023/01/24 12:25:55;;;;;;;11.82;9.15;;;5.40;99.90;;;;;;5006531;28;20655;-81
2023/01/24 12:28:43;;;;;;;12.35;9.40;;;5.50;99.90;;;;;;5008189;28;20477;-80
2023/01/24 12:31:09;;;;;;;14.52;9.38;;;5.60;99.90;;;;;;4952722;28;20029;-81
2023/01/24 12:33:37;;;;;;;12.77;9.68;;;5.50;99.90;;;;;;5010948;28;20033;-81
2023/01/24 12:36:11;;;;;;;13.50;9.63;;;5.50;99.90;;;;;;5045178;28;20201;-80
2023/01/24 12:38:45;;;;;;;11.35;8.90;;;5.70;99.90;;;;;;5010560;28;20029;-80
2023/01/24 12:41:43;;;;;;;12.80;9.13;;;5.70;99.90;;;;;;5004414;28;20489;-80
2023/01/24 12:44:28;;;;;;;14.38;10.05;;;5.80;99.90;;;;;;4964997;28;20090;-80
2023/01/24 12:47:19;;;;;;;11.85;9.30;;;5.80;99.90;;;;;;5026224;28;20390;-81
2023/01/24 12:50:04;;;;;;;12.60;9.73;;;5.80;99.90;;;;;;5044423;28;20439;-81
2023/01/24 12:52:38;;;;;;;15.27;10.00;;;5.80;99.90;;;;;;5014716;28;20038;-81
2023/01/24 12:55:19;;;;;;;17.45;8.93;;;5.90;99.90;;;;;;5026720;28;20036;-81
2023/01/24 12:57:46;;;;;;;13.05;9.63;;;5.90;99.90;;;;;;5015034;28;20033;-80
2023/01/24 13:00:19;;;;;;;12.75;9.50;;;5.90;99.90;;;;;;5012546;28;20068;-81
2023/01/24 13:03:13;;;;;;;12.35;9.38;;;6.00;99.90;;;;;;4996740;28;20124;-81
2023/01/24 13:05:50;;;;;;;12.25;8.63;;;6.10;99.90;;;;;;5045243;28;20047;-81
2023/01/24 13:08:29;;;;;;;13.07;9.55;;;6.10;99.90;;;;;;5014279;28;20033;-81
2023/01/24 13:11:07;;;;;;;13.18;9.13;;;6.10;99.90;;;;;;5014229;28;20029;-81
2023/01/24 13:13:45;;;;;;;10.50;8.65;;;6.10;99.90;;;;;;5029168;28;20142;-81
2023/01/24 13:16:34;;;;;;;12.70;8.90;;;6.20;99.90;;;;;;5013693;28;20163;-81
2023/01/24 13:19:24;;;;;;;10.60;7.85;;;6.20;99.90;;;;;;5026100;28;20029;-81
2023/01/24 13:22:06;;;;;;;11.13;7.90;;;6.20;99.90;;;;;;5028939;28;20510;-81
2023/01/24 13:24:37;;;;;;;10.60;8.48;;;6.20;99.90;;;;;;5027968;28;20022;-81
2023/01/24 13:27:24;;;;;;;11.60;9.02;;;6.10;99.90;;;;;;5044003;28;20040;-81
2023/01/24 13:30:17;;;;;;;11.20;8.70;;;6.20;99.90;;;;;;5008305;28;20021;-80
2023/01/24 13:32:43;;;;;;;10.73;8.32;;;6.20;99.90;;;;;;5015128;28;20053;-80
2023/01/24 13:35:22;;;;;;;11.18;8.45;;;6.20;99.90;;;;;;5012305;28;20138;-80
2023/01/24 13:38:27;;;;;;;11.82;7.65;;;6.20;99.90;;;;;;5026933;28;20040;-80